sensor_id;sensor_type;location;lat;lon;timestamp;temperature;humidity
25668;DHT22;18003;-33.830;151.202;2023-12-20T00:02:28;23.30;99.90
25668;DHT22;18003;-33.830;151.202;2023-12-20T00:04:58;23.20;99.90
25668;DHT22;18003;-33.830;151.202;2023-12-20T00:07:27;23.30;99.90
25668;DHT22;18003;-33.830;151.202;2023-12-20T00:09:57;23.20;99.90
25668;DHT22;18003;-33.830;151.202;2023-12-20T00:12:27;23.20;99.90
25668;DHT22;18003;-33.830;151.202;2023-12-20T00:14:57;23.20;99.90
25668;DHT22;18003;-33.830;151.202;2023-12-20T00:17:26;23.20;99.90
25668;DHT22;18003;-33.830;151.202;2023-12-20T00:22:36;23.10;99.90
25668;DHT22;18003;-33.830;151.202;2023-12-20T00:25:06;23.10;99.90
25668;DHT22;18003;-33.830;151.202;2023-12-20T00:27:36;23.10;99.90
25668;DHT22;18003;-33.830;151.202;2023-12-20T00:30:06;23.10;99.90
25668;DHT22;18003;-33.830;151.202;2023-12-20T00:32:36;23.20;99.90
25668;DHT22;18003;-33.830;151.202;2023-12-20T00:35:06;23.20;99.90
25668;DHT22;18003;-33.830;151.202;2023-12-20T00:37:36;23.20;99.90
25668;DHT22;18003;-33.830;151.202;2023-12-20T00:40:06;23.20;99.90
25668;DHT22;18003;-33.830;151.202;2023-12-20T00:42:36;23.20;99.90
25668;DHT22;18003;-33.830;151.202;2023-12-20T00:45:07;23.20;99.90
25668;DHT22;18003;-33.830;151.202;2023-12-20T00:47:37;23.20;99.90
25668;DHT22;18003;-33.830;151.202;2023-12-20T00:50:07;23.10;99.90
25668;DHT22;18003;-33.830;151.202;2023-12-20T00:52:37;23.10;99.90
25668;DHT22;18003;-33.830;151.202;2023-12-20T00:55:08;23.10;99.90
25668;DHT22;18003;-33.830;151.202;2023-12-20T00:57:37;23.10;99.90
25668;DHT22;18003;-33.830;151.202;2023-12-20T01:00:08;23.10;99.90
25668;DHT22;18003;-33.830;151.202;2023-12-20T01:02:41;23.10;99.90
25668;DHT22;18003;-33.830;151.202;2023-12-20T01:05:10;23.10;99.90
25668;DHT22;18003;-33.830;151.202;2023-12-20T01:07:40;23.10;99.90
25668;DHT22;18003;-33.830;151.202;2023-12-20T01:10:10;23.10;99.90
25668;DHT22;18003;-33.830;151.202;2023-12-20T01:12:40;23.00;99.90
25668;DHT22;18003;-33.830;151.202;2023-12-20T01:15:10;23.00;99.90
25668;DHT22;18003;-33.830;151.202;2023-12-20T01:17:40;23.00;99.90
25668;DHT22;18003;-33.830;151.202;2023-12-20T01:20:10;23.00;99.90
25668;DHT22;18003;-33.830;151.202;2023-12-20T01:22:40;22.90;99.90
25668;DHT22;18003;-33.830;151.202;2023-12-20T01:25:10;22.90;99.90
25668;DHT22;18003;-33.830;151.202;2023-12-20T01:27:40;22.90;99.90
25668;DHT22;18003;-33.830;151.202;2023-12-20T01:30:10;22.90;99.90
25668;DHT22;18003;-33.830;151.202;2023-12-20T01:32:40;22.90;99.90
25668;DHT22;18003;-33.830;151.202;2023-12-20T01:35:10;22.90;99.90
25668;DHT22;18003;-33.830;151.202;2023-12-20T01:37:40;23.00;99.90
25668;DHT22;18003;-33.830;151.202;2023-12-20T01:40:11;22.90;99.90
25668;DHT22;18003;-33.830;151.202;2023-12-20T01:42:41;22.90;99.90
25668;DHT22;18003;-33.830;151.202;2023-12-20T01:45:10;22.80;99.90
25668;DHT22;18003;-33.830;151.202;2023-12-20T01:47:40;22.90;99.90
25668;DHT22;18003;-33.830;151.202;2023-12-20T01:50:10;22.90;99.90
25668;DHT22;18003;-33.830;151.202;2023-12-20T01:52:41;23.00;99.90
25668;DHT22;18003;-33.830;151.202;2023-12-20T01:55:11;23.00;99.90
25668;DHT22;18003;-33.830;151.202;2023-12-20T01:57:43;23.10;99.90
25668;DHT22;18003;-33.830;151.202;2023-12-20T02:00:13;22.90;99.90
25668;DHT22;18003;-33.830;151.202;2023-12-20T02:02:44;23.00;99.90
25668;DHT22;18003;-33.830;151.202;2023-12-20T02:05:14;23.10;99.90
25668;DHT22;18003;-33.830;151.202;2023-12-20T02:07:44;23.10;99.90
25668;DHT22;18003;-33.830;151.202;2023-12-20T02:10:14;23.00;99.90
25668;DHT22;18003;-33.830;151.202;2023-12-20T02:12:45;23.10;99.90
25668;DHT22;18003;-33.830;151.202;2023-12-20T02:15:15;23.10;99.90
25668;DHT22;18003;-33.830;151.202;2023-12-20T02:17:45;23.10;99.90
25668;DHT22;18003;-33.830;151.202;2023-12-20T02:20:16;23.10;99.90
25668;DHT22;18003;-33.830;151.202;2023-12-20T02:22:46;23.00;99.90
25668;DHT22;18003;-33.830;151.202;2023-12-20T02:25:16;23.00;99.90
25668;DHT22;18003;-33.830;151.202;2023-12-20T02:27:45;23.00;99.90
25668;DHT22;18003;-33.830;151.202;2023-12-20T02:30:15;23.00;99.90
25668;DHT22;18003;-33.830;151.202;2023-12-20T02:32:45;23.00;99.90
25668;DHT22;18003;-33.830;151.202;2023-12-20T02:35:15;23.10;99.90
25668;DHT22;18003;-33.830;151.202;2023-12-20T02:37:45;23.10;99.90
25668;DHT22;18003;-33.830;151.202;2023-12-20T02:40:15;23.10;99.90
25668;DHT22;18003;-33.830;151.202;2023-12-20T02:42:44;23.10;99.90
25668;DHT22;18003;-33.830;151.202;2023-12-20T02:45:14;23.10;99.90
25668;DHT22;18003;-33.830;151.202;2023-12-20T02:47:44;23.10;99.90
25668;DHT22;18003;-33.830;151.202;2023-12-20T02:50:14;23.10;99.90
25668;DHT22;18003;-33.830;151.202;2023-12-20T02:52:47;23.10;99.90
25668;DHT22;18003;-33.830;151.202;2023-12-20T02:55:17;23.00;99.90
25668;DHT22;18003;-33.830;151.202;2023-12-20T02:57:47;23.00;99.90
25668;DHT22;18003;-33.830;151.202;2023-12-20T03:00:17;23.00;99.90
25668;DHT22;18003;-33.830;151.202;2023-12-20T03:02:47;23.00;99.90
25668;DHT22;18003;-33.830;151.202;2023-12-20T03:05:17;23.00;99.90
25668;DHT22;18003;-33.830;151.202;2023-12-20T03:07:46;23.00;99.90
25668;DHT22;18003;-33.830;151.202;2023-12-20T03:10:16;23.00;99.90
25668;DHT22;18003;-33.830;151.202;2023-12-20T03:12:46;22.90;99.90
25668;DHT22;18003;-33.830;151.202;2023-12-20T03:15:16;22.90;99.90
25668;DHT22;18003;-33.830;151.202;2023-12-20T03:17:46;22.90;99.90
25668;DHT22;18003;-33.830;151.202;2023-12-20T03:20:15;22.90;99.90
25668;DHT22;18003;-33.830;151.202;2023-12-20T03:22:45;22.90;99.90
25668;DHT22;18003;-33.830;151.202;2023-12-20T03:25:15;22.80;99.90
25668;DHT22;18003;-33.830;151.202;2023-12-20T03:27:45;22.90;99.90
25668;DHT22;18003;-33.830;151.202;2023-12-20T03:30:14;22.90;99.90
25668;DHT22;18003;-33.830;151.202;2023-12-20T03:32:44;22.90;99.90
25668;DHT22;18003;-33.830;151.202;2023-12-20T03:35:14;22.90;99.90
25668;DHT22;18003;-33.830;151.202;2023-12-20T03:37:44;22.90;99.90
25668;DHT22;18003;-33.830;151.202;2023-12-20T03:40:14;22.90;99.90
25668;DHT22;18003;-33.830;151.202;2023-12-20T03:42:48;22.90;99.90
25668;DHT22;18003;-33.830;151.202;2023-12-20T03:45:14;22.90;99.90
25668;DHT22;18003;-33.830;151.202;2023-12-20T03:47:44;22.90;99.90
25668;DHT22;18003;-33.830;151.202;2023-12-20T03:50:14;22.90;99.90
25668;DHT22;18003;-33.830;151.202;2023-12-20T03:52:44;22.90;99.90
25668;DHT22;18003;-33.830;151.202;2023-12-20T03:55:14;22.90;99.90
25668;DHT22;18003;-33.830;151.202;2023-12-20T03:57:44;22.90;99.90
25668;DHT22;18003;-33.830;151.202;2023-12-20T04:00:14;22.90;99.90
25668;DHT22;18003;-33.830;151.202;2023-12-20T04:02:44;22.90;99.90
25668;DHT22;18003;-33.830;151.202;2023-12-20T04:05:14;22.80;99.90
25668;DHT22;18003;-33.830;151.202;2023-12-20T04:07:45;22.80;99.90
25668;DHT22;18003;-33.830;151.202;2023-12-20T04:10:14;22.80;99.90
25668;DHT22;18003;-33.830;151.202;2023-12-20T04:12:44;22.80;99.90
25668;DHT22;18003;-33.830;151.202;2023-12-20T04:15:14;22.70;99.90
25668;DHT22;18003;-33.830;151.202;2023-12-20T04:17:44;22.70;99.90
25668;DHT22;18003;-33.830;151.202;2023-12-20T04:20:14;22.80;99.90
25668;DHT22;18003;-33.830;151.202;2023-12-20T04:22:43;22.80;99.90
25668;DHT22;18003;-33.830;151.202;2023-12-20T04:25:13;22.80;99.90
25668;DHT22;18003;-33.830;151.202;2023-12-20T04:27:43;22.70;99.90
25668;DHT22;18003;-33.830;151.202;2023-12-20T04:30:13;22.70;99.90
25668;DHT22;18003;-33.830;151.202;2023-12-20T04:32:43;22.70;99.90
25668;DHT22;18003;-33.830;151.202;2023-12-20T04:35:13;22.70;99.90
25668;DHT22;18003;-33.830;151.202;2023-12-20T04:37:42;22.70;99.90
25668;DHT22;18003;-33.830;151.202;2023-12-20T04:40:12;22.70;99.90
25668;DHT22;18003;-33.830;151.202;2023-12-20T04:42:42;22.70;99.90
25668;DHT22;18003;-33.830;151.202;2023-12-20T04:45:12;22.70;99.90
25668;DHT22;18003;-33.830;151.202;2023-12-20T04:47:46;22.70;99.90
25668;DHT22;18003;-33.830;151.202;2023-12-20T04:50:15;22.70;99.90
25668;DHT22;18003;-33.830;151.202;2023-12-20T04:52:45;22.60;99.90
25668;DHT22;18003;-33.830;151.202;2023-12-20T04:55:20;22.60;99.90
25668;DHT22;18003;-33.830;151.202;2023-12-20T04:57:46;22.60;99.90
25668;DHT22;18003;-33.830;151.202;2023-12-20T05:00:16;22.70;99.90
25668;DHT22;18003;-33.830;151.202;2023-12-20T05:02:46;22.70;99.90
25668;DHT22;18003;-33.830;151.202;2023-12-20T05:05:15;22.70;99.90
25668;DHT22;18003;-33.830;151.202;2023-12-20T05:07:45;22.70;99.90
25668;DHT22;18003;-33.830;151.202;2023-12-20T05:10:15;22.70;99.90
25668;DHT22;18003;-33.830;151.202;2023-12-20T05:12:45;22.70;99.90
25668;DHT22;18003;-33.830;151.202;2023-12-20T05:15:15;22.60;99.90
25668;DHT22;18003;-33.830;151.202;2023-12-20T05:17:45;22.60;99.90
25668;DHT22;18003;-33.830;151.202;2023-12-20T05:20:14;22.60;99.90
25668;DHT22;18003;-33.830;151.202;2023-12-20T05:23:03;22.60;99.90
25668;DHT22;18003;-33.830;151.202;2023-12-20T05:25:33;22.70;99.90
25668;DHT22;18003;-33.830;151.202;2023-12-20T05:28:03;22.50;99.90
25668;DHT22;18003;-33.830;151.202;2023-12-20T05:30:42;22.50;99.90
25668;DHT22;18003;-33.830;151.202;2023-12-20T05:33:09;22.60;99.90
25668;DHT22;18003;-33.830;151.202;2023-12-20T05:35:41;22.60;99.90
25668;DHT22;18003;-33.830;151.202;2023-12-20T05:38:29;22.60;99.90
25668;DHT22;18003;-33.830;151.202;2023-12-20T05:41:03;22.60;99.90
25668;DHT22;18003;-33.830;151.202;2023-12-20T05:43:33;22.50;99.90
25668;DHT22;18003;-33.830;151.202;2023-12-20T05:46:03;22.50;99.90
25668;DHT22;18003;-33.830;151.202;2023-12-20T05:48:33;22.50;99.90
25668;DHT22;18003;-33.830;151.202;2023-12-20T05:51:03;22.50;99.90
25668;DHT22;18003;-33.830;151.202;2023-12-20T05:53:32;22.50;99.90
25668;DHT22;18003;-33.830;151.202;2023-12-20T05:56:02;22.40;99.90
25668;DHT22;18003;-33.830;151.202;2023-12-20T05:58:33;22.40;99.90
25668;DHT22;18003;-33.830;151.202;2023-12-20T06:01:04;22.40;99.90
25668;DHT22;18003;-33.830;151.202;2023-12-20T06:03:34;22.50;99.90
25668;DHT22;18003;-33.830;151.202;2023-12-20T06:06:07;22.50;99.90
25668;DHT22;18003;-33.830;151.202;2023-12-20T06:08:48;22.50;99.90
25668;DHT22;18003;-33.830;151.202;2023-12-20T06:11:18;22.40;99.90
25668;DHT22;18003;-33.830;151.202;2023-12-20T06:13:48;22.50;99.90
25668;DHT22;18003;-33.830;151.202;2023-12-20T06:16:19;22.50;99.90
25668;DHT22;18003;-33.830;151.202;2023-12-20T06:19:08;22.50;99.90
25668;DHT22;18003;-33.830;151.202;2023-12-20T06:21:37;22.50;99.90
25668;DHT22;18003;-33.830;151.202;2023-12-20T06:24:07;22.40;99.90
25668;DHT22;18003;-33.830;151.202;2023-12-20T06:26:37;22.40;99.90
25668;DHT22;18003;-33.830;151.202;2023-12-20T06:29:07;22.30;99.90
25668;DHT22;18003;-33.830;151.202;2023-12-20T06:31:38;22.30;99.90
25668;DHT22;18003;-33.830;151.202;2023-12-20T06:34:26;22.40;99.90
25668;DHT22;18003;-33.830;151.202;2023-12-20T06:36:56;22.40;99.90
25668;DHT22;18003;-33.830;151.202;2023-12-20T06:39:26;22.30;99.90
25668;DHT22;18003;-33.830;151.202;2023-12-20T06:41:56;22.40;99.90
25668;DHT22;18003;-33.830;151.202;2023-12-20T06:44:25;22.30;99.90
25668;DHT22;18003;-33.830;151.202;2023-12-20T06:46:55;22.30;99.90
25668;DHT22;18003;-33.830;151.202;2023-12-20T06:49:25;22.40;99.90
25668;DHT22;18003;-33.830;151.202;2023-12-20T06:51:55;22.40;99.90
25668;DHT22;18003;-33.830;151.202;2023-12-20T06:54:24;22.30;99.90
25668;DHT22;18003;-33.830;151.202;2023-12-20T06:56:54;22.40;99.90
25668;DHT22;18003;-33.830;151.202;2023-12-20T06:59:24;22.40;99.90
25668;DHT22;18003;-33.830;151.202;2023-12-20T07:01:54;22.40;99.90
25668;DHT22;18003;-33.830;151.202;2023-12-20T07:04:24;22.40;99.90
25668;DHT22;18003;-33.830;151.202;2023-12-20T07:06:53;22.40;99.90
25668;DHT22;18003;-33.830;151.202;2023-12-20T07:09:24;22.40;99.90
25668;DHT22;18003;-33.830;151.202;2023-12-20T07:11:54;22.40;99.90
25668;DHT22;18003;-33.830;151.202;2023-12-20T07:14:44;22.30;99.90
25668;DHT22;18003;-33.830;151.202;2023-12-20T07:17:15;22.30;99.90
25668;DHT22;18003;-33.830;151.202;2023-12-20T07:19:45;22.30;99.90
25668;DHT22;18003;-33.830;151.202;2023-12-20T07:22:15;22.40;99.90
25668;DHT22;18003;-33.830;151.202;2023-12-20T07:24:45;22.30;99.90
25668;DHT22;18003;-33.830;151.202;2023-12-20T07:27:15;22.30;99.90
25668;DHT22;18003;-33.830;151.202;2023-12-20T07:29:45;22.30;99.90
25668;DHT22;18003;-33.830;151.202;2023-12-20T07:32:14;22.30;99.90
25668;DHT22;18003;-33.830;151.202;2023-12-20T07:34:44;22.20;99.90
25668;DHT22;18003;-33.830;151.202;2023-12-20T07:37:14;22.20;99.90
25668;DHT22;18003;-33.830;151.202;2023-12-20T07:39:44;22.20;99.90
25668;DHT22;18003;-33.830;151.202;2023-12-20T07:42:13;22.20;99.90
25668;DHT22;18003;-33.830;151.202;2023-12-20T07:44:43;22.20;99.90
25668;DHT22;18003;-33.830;151.202;2023-12-20T07:47:13;22.20;99.90
25668;DHT22;18003;-33.830;151.202;2023-12-20T07:49:44;22.20;99.90
25668;DHT22;18003;-33.830;151.202;2023-12-20T07:52:14;22.20;99.90
25668;DHT22;18003;-33.830;151.202;2023-12-20T07:54:43;22.20;99.90
25668;DHT22;18003;-33.830;151.202;2023-12-20T07:57:13;22.30;99.90
25668;DHT22;18003;-33.830;151.202;2023-12-20T07:59:43;22.30;99.90
25668;DHT22;18003;-33.830;151.202;2023-12-20T08:02:13;22.40;99.90
25668;DHT22;18003;-33.830;151.202;2023-12-20T08:04:42;22.40;99.90
25668;DHT22;18003;-33.830;151.202;2023-12-20T08:07:12;22.40;99.90
25668;DHT22;18003;-33.830;151.202;2023-12-20T08:09:42;22.50;99.90
25668;DHT22;18003;-33.830;151.202;2023-12-20T08:12:12;22.50;99.90
25668;DHT22;18003;-33.830;151.202;2023-12-20T08:14:42;22.50;99.90
25668;DHT22;18003;-33.830;151.202;2023-12-20T08:17:11;22.50;99.90
25668;DHT22;18003;-33.830;151.202;2023-12-20T08:19:42;22.50;99.90
25668;DHT22;18003;-33.830;151.202;2023-12-20T08:22:12;22.50;99.90
25668;DHT22;18003;-33.830;151.202;2023-12-20T08:24:42;22.50;99.90
25668;DHT22;18003;-33.830;151.202;2023-12-20T08:27:12;22.40;99.90
25668;DHT22;18003;-33.830;151.202;2023-12-20T08:29:44;22.50;99.90
25668;DHT22;18003;-33.830;151.202;2023-12-20T08:34:46;22.40;99.90
25668;DHT22;18003;-33.830;151.202;2023-12-20T08:37:16;22.50;99.90
25668;DHT22;18003;-33.830;151.202;2023-12-20T08:39:46;22.50;99.90
25668;DHT22;18003;-33.830;151.202;2023-12-20T08:42:16;22.50;99.90
25668;DHT22;18003;-33.830;151.202;2023-12-20T08:44:45;22.50;99.90
25668;DHT22;18003;-33.830;151.202;2023-12-20T08:47:15;22.50;99.90
25668;DHT22;18003;-33.830;151.202;2023-12-20T08:49:45;22.50;99.90
25668;DHT22;18003;-33.830;151.202;2023-12-20T08:52:15;22.50;99.90
25668;DHT22;18003;-33.830;151.202;2023-12-20T08:54:45;22.50;99.90
25668;DHT22;18003;-33.830;151.202;2023-12-20T08:57:15;22.40;99.90
25668;DHT22;18003;-33.830;151.202;2023-12-20T08:59:45;22.40;99.90
25668;DHT22;18003;-33.830;151.202;2023-12-20T09:02:15;22.40;99.90
25668;DHT22;18003;-33.830;151.202;2023-12-20T09:04:45;22.50;99.90
25668;DHT22;18003;-33.830;151.202;2023-12-20T09:07:25;22.50;99.90
25668;DHT22;18003;-33.830;151.202;2023-12-20T09:09:56;22.40;99.90
25668;DHT22;18003;-33.830;151.202;2023-12-20T09:12:33;22.40;99.90
25668;DHT22;18003;-33.830;151.202;2023-12-20T09:15:08;22.50;99.90
25668;DHT22;18003;-33.830;151.202;2023-12-20T09:17:56;22.50;99.90
25668;DHT22;18003;-33.830;151.202;2023-12-20T09:20:29;22.50;99.90
25668;DHT22;18003;-33.830;151.202;2023-12-20T09:25:35;22.50;99.90
25668;DHT22;18003;-33.830;151.202;2023-12-20T09:28:05;22.50;99.90
25668;DHT22;18003;-33.830;151.202;2023-12-20T09:36:25;22.40;99.90
25668;DHT22;18003;-33.830;151.202;2023-12-20T09:39:13;22.40;99.90
25668;DHT22;18003;-33.830;151.202;2023-12-20T09:41:51;22.40;99.90
25668;DHT22;18003;-33.830;151.202;2023-12-20T09:46:51;22.40;99.90
25668;DHT22;18003;-33.830;151.202;2023-12-20T09:49:22;22.40;99.90
25668;DHT22;18003;-33.830;151.202;2023-12-20T09:51:54;22.40;99.90
25668;DHT22;18003;-33.830;151.202;2023-12-20T09:54:23;22.50;99.90
25668;DHT22;18003;-33.830;151.202;2023-12-20T09:56:53;22.40;99.90
25668;DHT22;18003;-33.830;151.202;2023-12-20T10:01:56;22.40;99.90
25668;DHT22;18003;-33.830;151.202;2023-12-20T10:04:26;22.40;99.90
25668;DHT22;18003;-33.830;151.202;2023-12-20T10:06:57;22.40;99.90
25668;DHT22;18003;-33.830;151.202;2023-12-20T10:09:28;22.40;99.90
25668;DHT22;18003;-33.830;151.202;2023-12-20T10:12:00;22.40;99.90
25668;DHT22;18003;-33.830;151.202;2023-12-20T10:14:39;22.40;99.90
25668;DHT22;18003;-33.830;151.202;2023-12-20T10:19:35;22.40;99.90
25668;DHT22;18003;-33.830;151.202;2023-12-20T10:22:05;22.40;99.90
25668;DHT22;18003;-33.830;151.202;2023-12-20T10:24:35;22.40;99.90
25668;DHT22;18003;-33.830;151.202;2023-12-20T10:27:06;22.40;99.90
25668;DHT22;18003;-33.830;151.202;2023-12-20T10:29:36;22.40;99.90
25668;DHT22;18003;-33.830;151.202;2023-12-20T10:32:28;22.40;99.90
25668;DHT22;18003;-33.830;151.202;2023-12-20T10:34:57;22.40;99.90
25668;DHT22;18003;-33.830;151.202;2023-12-20T10:37:27;22.40;99.90
25668;DHT22;18003;-33.830;151.202;2023-12-20T10:39:58;22.40;99.90
25668;DHT22;18003;-33.830;151.202;2023-12-20T10:42:27;22.40;99.90
25668;DHT22;18003;-33.830;151.202;2023-12-20T10:44:59;22.40;99.90
25668;DHT22;18003;-33.830;151.202;2023-12-20T10:47:29;22.40;99.90
25668;DHT22;18003;-33.830;151.202;2023-12-20T10:50:00;22.40;99.90
25668;DHT22;18003;-33.830;151.202;2023-12-20T10:52:29;22.40;99.90
25668;DHT22;18003;-33.830;151.202;2023-12-20T10:55:00;22.30;99.90
25668;DHT22;18003;-33.830;151.202;2023-12-20T10:57:30;22.30;99.90
25668;DHT22;18003;-33.830;151.202;2023-12-20T11:00:19;22.40;99.90
25668;DHT22;18003;-33.830;151.202;2023-12-20T11:08:31;22.30;99.90
25668;DHT22;18003;-33.830;151.202;2023-12-20T11:14:08;22.30;99.90
25668;DHT22;18003;-33.830;151.202;2023-12-20T11:16:38;22.30;99.90
25668;DHT22;18003;-33.830;151.202;2023-12-20T11:19:09;22.30;99.90
25668;DHT22;18003;-33.830;151.202;2023-12-20T11:21:42;22.30;99.90
25668;DHT22;18003;-33.830;151.202;2023-12-20T11:24:11;22.30;99.90
25668;DHT22;18003;-33.830;151.202;2023-12-20T11:26:46;22.30;99.90
25668;DHT22;18003;-33.830;151.202;2023-12-20T11:29:32;22.30;99.90
25668;DHT22;18003;-33.830;151.202;2023-12-20T11:32:04;22.30;99.90
25668;DHT22;18003;-33.830;151.202;2023-12-20T11:34:34;22.30;99.90
25668;DHT22;18003;-33.830;151.202;2023-12-20T11:37:05;22.30;99.90
25668;DHT22;18003;-33.830;151.202;2023-12-20T11:39:35;22.20;99.90
25668;DHT22;18003;-33.830;151.202;2023-12-20T11:42:08;22.30;99.90
25668;DHT22;18003;-33.830;151.202;2023-12-20T11:44:38;22.30;99.90
25668;DHT22;18003;-33.830;151.202;2023-12-20T11:47:08;22.30;99.90
25668;DHT22;18003;-33.830;151.202;2023-12-20T11:49:39;22.20;99.90
25668;DHT22;18003;-33.830;151.202;2023-12-20T11:52:11;22.20;99.90
25668;DHT22;18003;-33.830;151.202;2023-12-20T11:54:40;22.20;99.90
25668;DHT22;18003;-33.830;151.202;2023-12-20T11:57:10;22.20;99.90
25668;DHT22;18003;-33.830;151.202;2023-12-20T11:59:40;22.20;99.90
25668;DHT22;18003;-33.830;151.202;2023-12-20T12:02:16;22.20;99.90
25668;DHT22;18003;-33.830;151.202;2023-12-20T12:04:45;22.20;99.90
25668;DHT22;18003;-33.830;151.202;2023-12-20T12:07:15;22.20;99.90
25668;DHT22;18003;-33.830;151.202;2023-12-20T12:09:45;22.20;99.90
25668;DHT22;18003;-33.830;151.202;2023-12-20T12:12:15;22.20;99.90
25668;DHT22;18003;-33.830;151.202;2023-12-20T12:14:48;22.20;99.90
25668;DHT22;18003;-33.830;151.202;2023-12-20T12:17:16;22.20;99.90
25668;DHT22;18003;-33.830;151.202;2023-12-20T12:19:46;22.20;99.90
25668;DHT22;18003;-33.830;151.202;2023-12-20T12:22:16;22.10;99.90
25668;DHT22;18003;-33.830;151.202;2023-12-20T12:24:48;22.10;99.90
25668;DHT22;18003;-33.830;151.202;2023-12-20T12:27:18;22.10;99.90
25668;DHT22;18003;-33.830;151.202;2023-12-20T12:30:02;22.10;99.90
25668;DHT22;18003;-33.830;151.202;2023-12-20T12:32:33;22.10;99.90
25668;DHT22;18003;-33.830;151.202;2023-12-20T12:35:22;22.10;99.90
25668;DHT22;18003;-33.830;151.202;2023-12-20T12:37:52;22.10;99.90
25668;DHT22;18003;-33.830;151.202;2023-12-20T12:40:22;22.10;99.90
25668;DHT22;18003;-33.830;151.202;2023-12-20T12:42:51;22.10;99.90
25668;DHT22;18003;-33.830;151.202;2023-12-20T12:45:21;22.10;99.90
25668;DHT22;18003;-33.830;151.202;2023-12-20T12:50:27;22.10;99.90
25668;DHT22;18003;-33.830;151.202;2023-12-20T12:52:57;22.10;99.90
25668;DHT22;18003;-33.830;151.202;2023-12-20T12:55:27;22.10;99.90
25668;DHT22;18003;-33.830;151.202;2023-12-20T12:57:57;22.10;99.90
25668;DHT22;18003;-33.830;151.202;2023-12-20T13:00:26;22.10;99.90
25668;DHT22;18003;-33.830;151.202;2023-12-20T13:02:56;22.10;99.90
25668;DHT22;18003;-33.830;151.202;2023-12-20T13:05:26;22.10;99.90
25668;DHT22;18003;-33.830;151.202;2023-12-20T13:07:56;22.10;99.90
25668;DHT22;18003;-33.830;151.202;2023-12-20T13:10:26;22.00;99.90
25668;DHT22;18003;-33.830;151.202;2023-12-20T13:15:47;22.00;99.90
25668;DHT22;18003;-33.830;151.202;2023-12-20T13:18:18;22.00;99.90
25668;DHT22;18003;-33.830;151.202;2023-12-20T13:20:51;22.00;99.90
25668;DHT22;18003;-33.830;151.202;2023-12-20T13:23:24;22.00;99.90
25668;DHT22;18003;-33.830;151.202;2023-12-20T13:25:53;22.00;99.90
25668;DHT22;18003;-33.830;151.202;2023-12-20T13:28:23;22.00;99.90
25668;DHT22;18003;-33.830;151.202;2023-12-20T13:30:53;22.00;99.90
25668;DHT22;18003;-33.830;151.202;2023-12-20T13:33:41;22.00;99.90
25668;DHT22;18003;-33.830;151.202;2023-12-20T13:39:18;22.00;99.90
25668;DHT22;18003;-33.830;151.202;2023-12-20T13:42:06;22.00;99.90
25668;DHT22;18003;-33.830;151.202;2023-12-20T13:44:54;22.00;99.90
25668;DHT22;18003;-33.830;151.202;2023-12-20T13:47:24;22.00;99.90
25668;DHT22;18003;-33.830;151.202;2023-12-20T13:49:54;21.90;99.90
25668;DHT22;18003;-33.830;151.202;2023-12-20T13:52:24;21.90;99.90
25668;DHT22;18003;-33.830;151.202;2023-12-20T13:54:54;21.90;99.90
25668;DHT22;18003;-33.830;151.202;2023-12-20T13:57:23;21.90;99.90
25668;DHT22;18003;-33.830;151.202;2023-12-20T13:59:53;21.90;99.90
25668;DHT22;18003;-33.830;151.202;2023-12-20T14:02:24;21.90;99.90
25668;DHT22;18003;-33.830;151.202;2023-12-20T14:05:14;21.90;99.90
25668;DHT22;18003;-33.830;151.202;2023-12-20T14:08:04;21.90;99.90
25668;DHT22;18003;-33.830;151.202;2023-12-20T14:10:34;21.90;99.90
25668;DHT22;18003;-33.830;151.202;2023-12-20T14:13:03;21.90;99.90
25668;DHT22;18003;-33.830;151.202;2023-12-20T14:15:33;21.90;99.90
25668;DHT22;18003;-33.830;151.202;2023-12-20T14:18:05;21.80;99.90
25668;DHT22;18003;-33.830;151.202;2023-12-20T14:20:36;21.90;99.90
25668;DHT22;18003;-33.830;151.202;2023-12-20T14:23:25;21.90;99.90
25668;DHT22;18003;-33.830;151.202;2023-12-20T14:25:55;21.90;99.90
25668;DHT22;18003;-33.830;151.202;2023-12-20T14:28:29;21.80;99.90
25668;DHT22;18003;-33.830;151.202;2023-12-20T14:31:17;21.90;99.90
25668;DHT22;18003;-33.830;151.202;2023-12-20T14:33:47;21.90;99.90
25668;DHT22;18003;-33.830;151.202;2023-12-20T14:36:18;21.90;99.90
25668;DHT22;18003;-33.830;151.202;2023-12-20T14:38:48;21.90;99.90
25668;DHT22;18003;-33.830;151.202;2023-12-20T14:41:18;21.90;99.90
25668;DHT22;18003;-33.830;151.202;2023-12-20T14:43:48;21.90;99.90
25668;DHT22;18003;-33.830;151.202;2023-12-20T14:46:19;21.90;99.90
25668;DHT22;18003;-33.830;151.202;2023-12-20T14:48:50;21.80;99.90
25668;DHT22;18003;-33.830;151.202;2023-12-20T14:52:05;21.80;99.90
25668;DHT22;18003;-33.830;151.202;2023-12-20T14:54:08;21.80;99.90
25668;DHT22;18003;-33.830;151.202;2023-12-20T14:56:55;21.80;99.90
25668;DHT22;18003;-33.830;151.202;2023-12-20T14:59:32;21.80;99.90
25668;DHT22;18003;-33.830;151.202;2023-12-20T15:02:15;21.70;99.90
25668;DHT22;18003;-33.830;151.202;2023-12-20T15:04:45;21.80;99.90
25668;DHT22;18003;-33.830;151.202;2023-12-20T15:07:19;21.80;99.90
25668;DHT22;18003;-33.830;151.202;2023-12-20T15:09:49;21.80;99.90
25668;DHT22;18003;-33.830;151.202;2023-12-20T15:12:22;21.80;99.90
25668;DHT22;18003;-33.830;151.202;2023-12-20T15:14:51;21.80;99.90
25668;DHT22;18003;-33.830;151.202;2023-12-20T15:17:20;21.80;99.90
25668;DHT22;18003;-33.830;151.202;2023-12-20T15:19:50;21.80;99.90
25668;DHT22;18003;-33.830;151.202;2023-12-20T15:25:17;21.80;99.90
25668;DHT22;18003;-33.830;151.202;2023-12-20T15:27:46;21.70;99.90
25668;DHT22;18003;-33.830;151.202;2023-12-20T15:30:17;21.70;99.90
25668;DHT22;18003;-33.830;151.202;2023-12-20T15:32:47;21.80;99.90
25668;DHT22;18003;-33.830;151.202;2023-12-20T15:35:17;21.70;99.90
25668;DHT22;18003;-33.830;151.202;2023-12-20T15:37:57;21.70;99.90
25668;DHT22;18003;-33.830;151.202;2023-12-20T15:40:42;21.70;99.90
25668;DHT22;18003;-33.830;151.202;2023-12-20T15:43:11;21.70;99.90
25668;DHT22;18003;-33.830;151.202;2023-12-20T15:48:47;21.70;99.90
25668;DHT22;18003;-33.830;151.202;2023-12-20T15:51:19;21.70;99.90
25668;DHT22;18003;-33.830;151.202;2023-12-20T15:53:49;21.70;99.90
25668;DHT22;18003;-33.830;151.202;2023-12-20T15:56:44;21.70;99.90
25668;DHT22;18003;-33.830;151.202;2023-12-20T16:02:06;21.70;99.90